createdAt,value
2022-12-17T00:01:52.969Z,149.77
2022-12-17T00:04:39.259Z,150.40
2022-12-17T00:07:24.796Z,150.47
2022-12-17T00:10:10.200Z,150.17
2022-12-17T00:12:56.500Z,150.30
2022-12-17T00:15:43.578Z,150.33
2022-12-17T00:18:30.893Z,149.77
2022-12-17T00:21:17.885Z,150.73
2022-12-17T00:24:04.055Z,150.93
2022-12-17T00:26:49.533Z,150.57
2022-12-17T00:29:35.343Z,150.73
2022-12-17T00:32:30.845Z,150.60
2022-12-17T00:35:16.017Z,149.67
2022-12-17T00:38:03.865Z,150.07
2022-12-17T00:40:49.226Z,150.03
2022-12-17T00:43:35.067Z,149.30
2022-12-17T00:46:20.821Z,149.77
2022-12-17T00:49:08.374Z,149.73
2022-12-17T00:51:53.544Z,150.10
2022-12-17T00:54:38.854Z,149.47
2022-12-17T00:57:24.510Z,150.70
2022-12-17T01:00:11.883Z,149.87
2022-12-17T01:02:57.601Z,150.77
2022-12-17T01:05:45.977Z,150.60
2022-12-17T01:08:32.977Z,149.93
2022-12-17T01:11:18.478Z,149.97
2022-12-17T01:14:03.828Z,149.93
2022-12-17T01:16:49.253Z,150.00
2022-12-17T01:19:34.541Z,150.20
2022-12-17T01:22:21.320Z,150.83
2022-12-17T01:25:06.930Z,150.13
2022-12-17T01:27:52.358Z,150.53
2022-12-17T01:30:38.259Z,151.13
2022-12-17T01:33:25.752Z,150.07
2022-12-17T01:36:13.989Z,151.43
2022-12-17T01:39:01.320Z,151.33
2022-12-17T01:41:47.051Z,149.97
2022-12-17T01:45:03.220Z,149.80
2022-12-17T01:47:50.964Z,149.87
2022-12-17T01:50:49.325Z,149.97
2022-12-17T01:53:37.570Z,150.23
2022-12-17T01:56:26.029Z,149.80
2022-12-17T01:59:11.863Z,149.57
2022-12-17T02:01:58.168Z,150.40
2022-12-17T02:04:43.989Z,150.10
2022-12-17T02:07:46.283Z,150.47
2022-12-17T02:10:41.254Z,149.83
2022-12-17T02:13:34.265Z,150.10
2022-12-17T02:16:40.889Z,149.90
2022-12-17T02:19:40.914Z,149.37
2022-12-17T02:22:35.213Z,149.43
2022-12-17T02:25:27.824Z,149.77
2022-12-17T02:28:14.986Z,150.17
2022-12-17T02:31:00.608Z,148.90
2022-12-17T02:33:46.422Z,150.33
2022-12-17T02:36:32.948Z,149.67
2022-12-17T02:39:18.369Z,149.00
2022-12-17T02:42:08.780Z,149.97
2022-12-17T02:44:57.957Z,150.30
2022-12-17T02:47:44.328Z,149.80
2022-12-17T02:50:31.252Z,149.73
2022-12-17T02:53:18.954Z,149.80
2022-12-17T02:56:04.524Z,150.27
2022-12-17T02:58:52.592Z,149.90
2022-12-17T03:01:39.435Z,150.20
2022-12-17T03:04:24.741Z,150.60
2022-12-17T03:07:10.098Z,149.90
2022-12-17T03:09:55.751Z,150.57
2022-12-17T03:12:42.481Z,150.10
2022-12-17T03:15:28.555Z,150.07
2022-12-17T03:18:15.309Z,150.23
2022-12-17T03:21:00.752Z,150.50
2022-12-17T03:23:46.130Z,150.13
2022-12-17T03:26:31.517Z,150.07
2022-12-17T03:29:17.105Z,150.23
2022-12-17T03:32:02.641Z,150.23
2022-12-17T03:34:49.421Z,150.30
2022-12-17T03:37:35.001Z,150.07
2022-12-17T03:40:20.492Z,150.60
2022-12-17T03:43:05.997Z,149.57
2022-12-17T03:45:51.544Z,150.23
2022-12-17T03:48:37.038Z,150.23
2022-12-17T03:51:24.050Z,150.73
2022-12-17T03:54:09.738Z,151.03
2022-12-17T03:56:55.096Z,149.67
2022-12-17T03:59:41.814Z,149.97
2022-12-17T04:02:27.385Z,149.53
2022-12-17T04:05:18.167Z,149.70
2022-12-17T04:08:06.613Z,149.17
2022-12-17T04:10:52.105Z,149.47
2022-12-17T04:13:41.011Z,150.43
2022-12-17T04:16:30.658Z,149.00
2022-12-17T04:19:16.089Z,149.07
2022-12-17T04:22:01.544Z,149.27
2022-12-17T04:24:48.304Z,149.20
2022-12-17T04:27:33.772Z,149.77
2022-12-17T04:30:19.181Z,149.90
2022-12-17T04:33:04.742Z,149.67
2022-12-17T04:35:50.325Z,150.03
2022-12-17T04:38:35.753Z,149.20
2022-12-17T04:41:22.667Z,149.30
2022-12-17T04:44:08.144Z,149.23
2022-12-17T04:46:53.731Z,148.67
2022-12-17T04:49:44.626Z,149.20
2022-12-17T04:52:30.250Z,149.70
2022-12-17T04:55:15.673Z,149.60
2022-12-17T04:58:02.661Z,148.97
2022-12-17T05:00:48.189Z,148.93
2022-12-17T05:03:35.458Z,149.50
2022-12-17T05:06:21.555Z,149.20
2022-12-17T05:09:06.938Z,149.10
2022-12-17T05:12:06.884Z,149.50
2022-12-17T05:14:56.679Z,148.90
2022-12-17T05:17:41.921Z,148.93
2022-12-17T05:20:28.212Z,148.67
2022-12-17T05:23:13.778Z,149.00
2022-12-17T05:25:59.209Z,148.47
2022-12-17T05:28:44.727Z,149.40
2022-12-17T05:31:31.451Z,148.77
2022-12-17T05:34:16.956Z,148.63
2022-12-17T05:37:02.437Z,149.93
2022-12-17T05:39:48.000Z,148.83
2022-12-17T05:42:33.557Z,148.53
2022-12-17T05:45:18.891Z,149.53
2022-12-17T05:48:05.815Z,149.40
2022-12-17T05:50:47.557Z,149.47
2022-12-17T05:53:33.542Z,149.37
2022-12-17T05:56:19.383Z,149.43
2022-12-17T05:59:04.852Z,149.00
2022-12-17T06:01:50.508Z,149.10
2022-12-17T06:04:37.219Z,149.83
2022-12-17T06:07:22.664Z,149.17
2022-12-17T06:10:13.640Z,148.77
2022-12-17T06:12:59.115Z,149.17
2022-12-17T06:15:44.665Z,148.80
2022-12-17T06:18:30.146Z,148.37
2022-12-17T06:21:17.175Z,149.07
2022-12-17T06:24:02.644Z,148.90
2022-12-17T06:26:48.120Z,149.13
2022-12-17T06:29:33.450Z,149.57
2022-12-17T06:32:18.848Z,149.07
2022-12-17T06:35:04.331Z,149.17
2022-12-17T06:37:51.000Z,149.73
2022-12-17T06:40:36.371Z,149.27
2022-12-17T06:43:30.213Z,148.77
2022-12-17T06:46:15.837Z,149.60
2022-12-17T06:49:01.215Z,149.37
2022-12-17T06:51:46.874Z,149.87
2022-12-17T06:54:42.072Z,149.80
2022-12-17T06:57:27.556Z,149.67
2022-12-17T07:00:13.097Z,149.43
2022-12-17T07:02:58.736Z,149.23
2022-12-17T07:05:44.065Z,149.20
2022-12-17T07:08:29.663Z,149.00
2022-12-17T07:11:19.418Z,149.67
2022-12-17T07:14:04.890Z,149.27
2022-12-17T07:16:50.519Z,149.63
2022-12-17T07:19:35.740Z,148.87
2022-12-17T07:22:21.288Z,149.23
2022-12-17T07:25:06.956Z,149.00
2022-12-17T07:27:53.773Z,148.97
2022-12-17T07:30:39.350Z,149.57
2022-12-17T07:33:26.407Z,148.83
2022-12-17T07:36:12.313Z,148.57
2022-12-17T07:38:57.812Z,149.43
2022-12-17T07:41:43.389Z,148.27
2022-12-17T07:44:30.264Z,148.13
2022-12-17T07:47:15.884Z,148.57
2022-12-17T07:50:01.340Z,148.83
2022-12-17T07:52:46.821Z,148.83
2022-12-17T07:55:32.058Z,148.53
2022-12-17T07:58:18.434Z,149.43
2022-12-17T08:01:05.380Z,149.13
2022-12-17T08:03:50.563Z,148.57
2022-12-17T08:06:36.287Z,149.30
2022-12-17T08:09:22.451Z,149.47
2022-12-17T08:12:07.863Z,149.10
2022-12-17T08:14:53.552Z,148.80
2022-12-17T08:17:40.287Z,149.67
2022-12-17T08:20:27.094Z,149.20
2022-12-17T08:23:19.457Z,148.53
2022-12-17T08:26:05.101Z,149.03
2022-12-17T08:28:51.044Z,148.93
2022-12-17T08:31:37.329Z,148.43
2022-12-17T08:34:24.508Z,149.00
2022-12-17T08:37:09.963Z,149.17
2022-12-17T08:39:55.681Z,148.53
2022-12-17T08:42:41.139Z,148.93
2022-12-17T08:45:27.561Z,149.03
2022-12-17T08:48:16.458Z,148.77
2022-12-17T08:51:03.412Z,148.80
2022-12-17T08:53:48.892Z,148.73
2022-12-17T08:56:34.374Z,149.03
2022-12-17T08:59:19.772Z,149.40
2022-12-17T09:02:05.473Z,149.13
2022-12-17T09:04:50.841Z,148.67
2022-12-17T09:07:37.780Z,149.27
2022-12-17T09:10:23.781Z,149.97
2022-12-17T09:13:09.161Z,149.30
2022-12-17T09:15:54.535Z,149.10
2022-12-17T09:18:40.441Z,149.00
2022-12-17T09:21:26.719Z,148.90
2022-12-17T09:24:13.674Z,148.80
2022-12-17T09:26:59.205Z,149.83
2022-12-17T09:29:44.582Z,149.13
2022-12-17T09:32:30.089Z,148.70
2022-12-17T09:35:15.560Z,149.77
2022-12-17T09:38:01.176Z,149.37
2022-12-17T09:40:48.996Z,149.37
2022-12-17T09:43:44.582Z,149.67
2022-12-17T09:46:38.655Z,148.83
2022-12-17T09:49:32.935Z,148.83
2022-12-17T09:52:18.517Z,148.93
2022-12-17T09:55:07.140Z,148.60
2022-12-17T09:57:55.893Z,149.37
2022-12-17T10:00:43.329Z,148.47
2022-12-17T10:03:30.904Z,148.70
2022-12-17T10:06:22.634Z,149.03
2022-12-17T10:09:14.347Z,148.77
2022-12-17T10:11:59.743Z,148.27
2022-12-17T10:14:46.373Z,149.40
2022-12-17T10:17:34.861Z,149.00
2022-12-17T10:20:21.958Z,148.23
2022-12-17T10:23:17.712Z,149.23
2022-12-17T10:26:09.773Z,149.13
2022-12-17T10:28:55.053Z,148.97
2022-12-17T10:31:57.609Z,149.83
2022-12-17T10:34:43.686Z,148.30
2022-12-17T10:37:38.360Z,149.57
2022-12-17T10:40:38.422Z,149.57
2022-12-17T10:43:41.399Z,149.20
2022-12-17T10:46:26.983Z,148.70
2022-12-17T10:49:23.997Z,149.20
2022-12-17T10:52:09.720Z,149.77
2022-12-17T10:54:55.717Z,150.13
2022-12-17T10:57:47.578Z,148.97
2022-12-17T11:00:49.759Z,149.33
2022-12-17T11:03:48.590Z,149.90
2022-12-17T11:06:42.766Z,150.13
2022-12-17T11:09:36.871Z,149.97
2022-12-17T11:12:30.557Z,149.80
2022-12-17T11:15:22.677Z,149.77
2022-12-17T11:18:14.158Z,149.03
2022-12-17T11:21:07.275Z,149.80
2022-12-17T11:23:56.419Z,149.80
2022-12-17T11:26:45.321Z,149.77
2022-12-17T11:29:31.519Z,149.90
2022-12-17T11:32:49.319Z,149.80
2022-12-17T11:35:41.384Z,149.23
2022-12-17T11:38:41.070Z,149.27
2022-12-17T11:41:34.353Z,149.63
2022-12-17T11:44:29.854Z,148.57
2022-12-17T11:47:30.373Z,149.80
2022-12-17T11:50:30.288Z,149.90
2022-12-17T11:53:27.572Z,149.53
2022-12-17T11:56:20.622Z,149.87
2022-12-17T11:59:10.907Z,149.87
2022-12-17T12:02:07.614Z,148.70
2022-12-17T12:05:11.649Z,148.83
2022-12-17T12:08:05.099Z,149.07
2022-12-17T12:10:57.549Z,148.67
2022-12-17T12:13:52.262Z,148.77
2022-12-17T12:16:44.317Z,149.17
2022-12-17T12:19:37.208Z,149.23
2022-12-17T12:22:32.217Z,148.70
2022-12-17T12:25:33.838Z,148.40
2022-12-17T12:28:28.452Z,148.87
2022-12-17T12:31:18.645Z,148.80
2022-12-17T12:34:12.041Z,148.47
2022-12-17T12:36:59.344Z,148.63
2022-12-17T12:39:52.814Z,149.07
2022-12-17T12:42:44.173Z,149.10
2022-12-17T12:45:51.603Z,149.47
2022-12-17T12:48:50.116Z,149.03
2022-12-17T12:51:42.097Z,149.37
2022-12-17T12:54:58.595Z,149.17
2022-12-17T12:57:46.588Z,148.07
2022-12-17T13:00:52.585Z,148.60
2022-12-17T13:03:44.380Z,148.50
2022-12-17T13:06:13.404Z,148.77
2022-12-17T13:08:43.004Z,148.90
2022-12-17T13:11:26.639Z,149.50
2022-12-17T13:13:58.376Z,149.03
2022-12-17T13:16:36.444Z,149.27
2022-12-17T13:19:17.679Z,149.27
2022-12-17T13:21:45.580Z,149.10
2022-12-17T13:24:25.814Z,148.97
2022-12-17T13:26:53.851Z,149.27
2022-12-17T13:29:28.174Z,149.10
2022-12-17T13:32:07.992Z,149.63
2022-12-17T13:34:53.704Z,149.83
2022-12-17T13:37:32.915Z,148.57
2022-12-17T13:40:15.075Z,149.13
2022-12-17T13:42:46.817Z,149.77
2022-12-17T13:45:16.638Z,148.77
2022-12-17T13:47:44.560Z,148.47
2022-12-17T13:50:34.015Z,149.13
2022-12-17T13:53:11.085Z,149.47
2022-12-17T13:55:40.330Z,148.40
2022-12-17T13:58:22.867Z,148.23
2022-12-17T14:00:50.807Z,148.67
2022-12-17T14:03:37.409Z,148.80
2022-12-17T14:06:12.520Z,148.97
2022-12-17T14:08:41.605Z,148.40
2022-12-17T14:11:30.366Z,149.47
2022-12-17T14:13:58.572Z,149.10
2022-12-17T14:16:26.409Z,148.53
2022-12-17T14:18:57.051Z,148.07
2022-12-17T14:21:27.212Z,148.50
2022-12-17T14:23:56.110Z,148.77
2022-12-17T14:26:25.301Z,149.30
2022-12-17T14:28:55.320Z,149.23
2022-12-17T14:31:27.527Z,148.77
2022-12-17T14:34:07.408Z,149.43
2022-12-17T14:36:37.345Z,149.10
2022-12-17T14:39:10.993Z,148.40
2022-12-17T14:41:57.814Z,148.80
2022-12-17T14:44:27.780Z,149.43
2022-12-17T14:47:09.900Z,150.03
2022-12-17T14:49:40.355Z,148.73
2022-12-17T14:52:14.453Z,148.17
2022-12-17T14:54:47.096Z,148.73
2022-12-17T14:57:23.273Z,148.23
2022-12-17T14:59:52.351Z,148.73
2022-12-17T15:02:26.123Z,148.83
2022-12-17T15:04:57.138Z,148.80
2022-12-17T15:07:26.979Z,148.80
2022-12-17T15:09:56.378Z,148.03
2022-12-17T15:12:26.490Z,148.40
2022-12-17T15:14:54.317Z,147.87
2022-12-17T15:17:22.117Z,148.73
2022-12-17T15:19:55.734Z,149.57
2022-12-17T15:22:24.556Z,148.40
2022-12-17T15:24:52.379Z,149.20
2022-12-17T15:27:20.253Z,148.73
2022-12-17T15:29:49.404Z,148.73
2022-12-17T15:32:19.725Z,148.93
2022-12-17T15:34:47.866Z,148.27
2022-12-17T15:37:21.128Z,148.37
2022-12-17T15:39:51.933Z,148.67
2022-12-17T15:42:42.656Z,148.17
2022-12-17T15:45:11.973Z,148.77
2022-12-17T15:47:39.769Z,148.77
2022-12-17T15:50:08.765Z,148.27
2022-12-17T15:52:36.652Z,148.17
2022-12-17T15:55:04.665Z,148.30
2022-12-17T15:57:32.445Z,147.80
2022-12-17T16:00:00.259Z,148.00
2022-12-17T16:02:29.559Z,148.17
2022-12-17T16:04:57.504Z,148.37
2022-12-17T16:07:25.305Z,148.30
2022-12-17T16:09:53.094Z,148.43
2022-12-17T16:12:20.930Z,148.00
2022-12-17T16:14:49.561Z,148.67
2022-12-17T16:17:17.349Z,148.47
2022-12-17T16:19:46.496Z,148.70
2022-12-17T16:22:14.316Z,148.90
2022-12-17T16:24:42.109Z,149.23
2022-12-17T16:27:09.911Z,148.50
2022-12-17T16:29:37.716Z,148.53
2022-12-17T16:32:05.940Z,148.57
2022-12-17T16:34:33.734Z,149.13
2022-12-17T16:37:02.911Z,148.83
2022-12-17T16:39:31.275Z,149.13
2022-12-17T16:41:59.132Z,148.67
2022-12-17T16:44:26.935Z,149.27
2022-12-17T16:46:54.830Z,148.13
2022-12-17T16:49:24.298Z,149.07
2022-12-17T16:51:53.813Z,149.23
2022-12-17T16:54:25.973Z,148.97
2022-12-17T16:56:54.360Z,149.30
2022-12-17T16:59:23.291Z,149.03
2022-12-17T17:01:52.506Z,149.10
2022-12-17T17:04:22.073Z,148.80
2022-12-17T17:06:51.561Z,148.97
2022-12-17T17:09:20.164Z,149.17
2022-12-17T17:11:51.802Z,149.23
2022-12-17T17:14:20.712Z,148.93
2022-12-17T17:16:48.750Z,148.77
2022-12-17T17:19:16.843Z,149.13
2022-12-17T17:21:50.532Z,148.93
2022-12-17T17:24:21.924Z,149.00
2022-12-17T17:26:52.705Z,149.07
2022-12-17T17:29:20.826Z,148.43
2022-12-17T17:34:36.485Z,149.47
2022-12-17T17:37:04.679Z,148.60
2022-12-17T17:39:34.021Z,149.40
2022-12-17T17:42:03.377Z,149.33
2022-12-17T17:44:31.167Z,149.00
2022-12-17T17:46:59.037Z,148.93
2022-12-17T17:49:26.873Z,149.33
2022-12-17T17:52:12.033Z,149.20
2022-12-17T17:54:40.764Z,148.83
2022-12-17T17:57:10.471Z,148.90
2022-12-17T17:59:39.165Z,148.70
2022-12-17T18:02:08.613Z,149.10
2022-12-17T18:04:36.838Z,149.17
2022-12-17T18:09:52.433Z,148.93
2022-12-17T18:12:38.981Z,149.47
2022-12-17T18:15:17.352Z,149.60
2022-12-17T18:17:47.097Z,148.83
2022-12-17T18:20:15.010Z,149.00
2022-12-17T18:22:43.191Z,149.07
2022-12-17T18:25:11.318Z,149.33
2022-12-17T18:27:40.594Z,149.23
2022-12-17T18:30:09.474Z,148.50
2022-12-17T18:32:37.454Z,148.73
2022-12-17T18:35:06.102Z,148.70
2022-12-17T18:37:33.916Z,149.30
2022-12-17T18:40:01.719Z,149.20
2022-12-17T18:42:47.000Z,149.00
2022-12-17T18:45:16.198Z,148.80
2022-12-17T18:47:44.501Z,149.57
2022-12-17T18:50:13.158Z,149.40
2022-12-17T18:52:42.363Z,148.47
2022-12-17T18:55:10.205Z,149.03
2022-12-17T18:57:38.010Z,148.90
2022-12-17T19:00:07.272Z,149.47
2022-12-17T19:02:36.511Z,149.17
2022-12-17T19:05:04.666Z,148.93
2022-12-17T19:07:32.493Z,148.80
2022-12-17T19:10:00.285Z,149.57
2022-12-17T19:12:28.081Z,148.50
2022-12-17T19:14:55.917Z,149.13
2022-12-17T19:17:23.710Z,149.63
2022-12-17T19:19:52.852Z,148.57
2022-12-17T19:22:20.641Z,149.73
2022-12-17T19:24:48.445Z,149.87
2022-12-17T19:27:16.234Z,148.80
2022-12-17T19:29:49.136Z,148.27
2022-12-17T19:32:17.413Z,148.90
2022-12-17T19:34:45.317Z,149.77
2022-12-17T19:37:14.428Z,148.87
2022-12-17T19:39:42.273Z,148.87
2022-12-17T19:42:24.232Z,149.33
2022-12-17T19:44:52.336Z,149.63
2022-12-17T19:47:20.140Z,148.37
2022-12-17T19:49:48.052Z,149.80
2022-12-17T19:52:18.496Z,149.27
2022-12-17T19:54:46.397Z,148.37
2022-12-17T19:57:14.417Z,149.73
2022-12-17T19:59:42.229Z,148.83
2022-12-17T20:02:10.918Z,149.13
2022-12-17T20:04:39.024Z,148.67
2022-12-17T20:07:06.828Z,149.57
2022-12-17T20:09:35.977Z,148.80
2022-12-17T20:12:04.249Z,149.03
2022-12-17T20:14:34.129Z,148.87
2022-12-17T20:17:03.961Z,149.13
2022-12-17T20:19:34.849Z,149.40
2022-12-17T20:22:04.897Z,149.27
2022-12-17T20:24:32.928Z,148.97
2022-12-17T20:27:02.299Z,148.23
2022-12-17T20:29:30.598Z,148.90
2022-12-17T20:31:58.685Z,149.23
2022-12-17T20:34:26.610Z,149.00
2022-12-17T20:36:54.820Z,149.03
2022-12-17T20:39:27.257Z,149.37
2022-12-17T20:41:55.948Z,149.00
2022-12-17T20:44:25.161Z,149.30
2022-12-17T20:46:52.967Z,149.23
2022-12-17T20:49:20.860Z,149.33
2022-12-17T20:51:48.757Z,149.47
2022-12-17T20:54:16.670Z,149.53
2022-12-17T20:56:44.563Z,148.77
2022-12-17T20:59:16.726Z,148.60
2022-12-17T21:01:50.420Z,149.17
2022-12-17T21:04:22.275Z,148.83
2022-12-17T21:06:50.221Z,148.33
2022-12-17T21:09:20.084Z,149.03
2022-12-17T21:11:48.220Z,149.30
2022-12-17T21:14:18.946Z,149.47
2022-12-17T21:16:48.340Z,149.67
2022-12-17T21:19:18.502Z,149.27
2022-12-17T21:21:46.500Z,149.10
2022-12-17T21:24:14.445Z,148.77
2022-12-17T21:26:43.795Z,149.53
2022-12-17T21:29:12.098Z,149.13
2022-12-17T21:31:41.668Z,149.33
2022-12-17T21:34:13.612Z,148.90
2022-12-17T21:36:42.032Z,149.10
2022-12-17T21:39:12.766Z,148.97
2022-12-17T21:41:44.451Z,148.93
2022-12-17T21:44:14.564Z,148.37
2022-12-17T21:46:48.518Z,149.27
2022-12-17T21:49:19.355Z,148.83
2022-12-17T21:51:47.558Z,148.27
2022-12-17T21:54:19.816Z,148.97
2022-12-17T21:56:48.825Z,148.40
2022-12-17T21:59:17.170Z,148.60
2022-12-17T22:01:45.278Z,148.60
2022-12-17T22:04:13.289Z,148.93
2022-12-17T22:06:52.745Z,148.13
2022-12-17T22:09:40.834Z,148.73
2022-12-17T22:12:31.543Z,149.17
2022-12-17T22:14:59.347Z,148.40
2022-12-17T22:17:27.668Z,148.07
2022-12-17T22:19:55.489Z,148.60
2022-12-17T22:22:24.692Z,148.90
2022-12-17T22:24:52.538Z,149.27
2022-12-17T22:27:20.417Z,148.73
2022-12-17T22:30:08.783Z,148.37
2022-12-17T22:32:54.042Z,149.23
2022-12-17T22:36:54.070Z,148.43
2022-12-17T22:40:30.362Z,148.57
2022-12-17T22:44:42.603Z,148.43
2022-12-17T22:44:46.803Z,147.63
2022-12-17T22:46:42.591Z,147.63
2022-12-17T22:49:11.037Z,148.80
2022-12-17T22:51:41.340Z,147.90
2022-12-17T22:54:13.600Z,148.23
2022-12-17T22:57:17.601Z,148.40
2022-12-17T22:59:32.010Z,149.00
2022-12-17T23:01:59.924Z,148.43
2022-12-17T23:04:27.829Z,147.83
2022-12-17T23:06:55.656Z,148.47
2022-12-17T23:09:24.828Z,148.57
2022-12-17T23:11:52.645Z,148.40
2022-12-17T23:14:20.736Z,148.53
2022-12-17T23:16:48.537Z,147.87
2022-12-17T23:19:16.349Z,148.27
2022-12-17T23:21:44.232Z,148.70
2022-12-17T23:24:12.024Z,148.97
2022-12-17T23:26:41.534Z,149.00
2022-12-17T23:29:14.925Z,148.67
2022-12-17T23:31:45.500Z,147.83
2022-12-17T23:34:13.371Z,148.27
2022-12-17T23:36:41.196Z,147.87
2022-12-17T23:39:09.109Z,147.83
2022-12-17T23:41:36.992Z,148.50
2022-12-17T23:44:06.242Z,147.70
2022-12-17T23:46:34.086Z,148.77
2022-12-17T23:49:04.871Z,148.77
2022-12-17T23:51:34.089Z,148.07
2022-12-17T23:54:01.885Z,148.07
2022-12-17T23:56:30.001Z,148.07
2022-12-17T23:58:59.984Z,149.03
